sensor_id;sensor_type;location;lat;lon;timestamp;P1;durP1;ratioP1;P2;durP2;ratioP2
9156;SDS011;4613;48.392;9.998;2022-08-19T00:01:39;2.60;;;2.40;;
9156;SDS011;4613;48.392;9.998;2022-08-19T00:04:12;2.53;;;2.33;;
9156;SDS011;4613;48.392;9.998;2022-08-19T00:06:46;2.60;;;2.40;;
9156;SDS011;4613;48.392;9.998;2022-08-19T00:09:19;2.07;;;1.97;;
9156;SDS011;4613;48.392;9.998;2022-08-19T00:11:52;2.80;;;2.60;;
9156;SDS011;4613;48.392;9.998;2022-08-19T00:14:26;2.70;;;2.50;;
9156;SDS011;4613;48.392;9.998;2022-08-19T00:16:57;2.63;;;2.40;;
9156;SDS011;4613;48.392;9.998;2022-08-19T00:19:28;3.00;;;2.73;;
9156;SDS011;4613;48.392;9.998;2022-08-19T00:22:00;3.37;;;3.00;;
9156;SDS011;4613;48.392;9.998;2022-08-19T00:24:32;3.07;;;2.77;;
9156;SDS011;4613;48.392;9.998;2022-08-19T00:27:04;2.67;;;2.47;;
9156;SDS011;4613;48.392;9.998;2022-08-19T00:29:35;3.10;;;2.77;;
9156;SDS011;4613;48.392;9.998;2022-08-19T00:32:06;3.13;;;2.83;;
9156;SDS011;4613;48.392;9.998;2022-08-19T00:34:37;3.33;;;2.90;;
9156;SDS011;4613;48.392;9.998;2022-08-19T00:37:08;3.27;;;2.97;;
9156;SDS011;4613;48.392;9.998;2022-08-19T00:39:39;3.40;;;3.10;;
9156;SDS011;4613;48.392;9.998;2022-08-19T00:42:11;2.73;;;2.53;;
9156;SDS011;4613;48.392;9.998;2022-08-19T00:44:42;2.93;;;2.67;;
9156;SDS011;4613;48.392;9.998;2022-08-19T00:47:13;3.27;;;2.97;;
9156;SDS011;4613;48.392;9.998;2022-08-19T00:49:45;3.10;;;2.80;;
9156;SDS011;4613;48.392;9.998;2022-08-19T00:52:28;3.23;;;3.00;;
9156;SDS011;4613;48.392;9.998;2022-08-19T00:55:05;3.20;;;2.90;;
9156;SDS011;4613;48.392;9.998;2022-08-19T00:57:42;3.40;;;3.10;;
9156;SDS011;4613;48.392;9.998;2022-08-19T01:00:18;3.30;;;3.00;;
9156;SDS011;4613;48.392;9.998;2022-08-19T01:02:50;3.30;;;3.00;;
9156;SDS011;4613;48.392;9.998;2022-08-19T01:05:24;3.13;;;2.83;;
9156;SDS011;4613;48.392;9.998;2022-08-19T01:07:58;3.67;;;3.37;;
9156;SDS011;4613;48.392;9.998;2022-08-19T01:10:33;3.23;;;2.93;;
9156;SDS011;4613;48.392;9.998;2022-08-19T01:13:09;3.50;;;3.20;;
9156;SDS011;4613;48.392;9.998;2022-08-19T01:15:55;2.67;;;2.47;;
9156;SDS011;4613;48.392;9.998;2022-08-19T01:18:39;2.90;;;2.70;;
9156;SDS011;4613;48.392;9.998;2022-08-19T01:21:15;3.40;;;3.10;;
9156;SDS011;4613;48.392;9.998;2022-08-19T01:23:54;3.30;;;2.87;;
9156;SDS011;4613;48.392;9.998;2022-08-19T01:26:25;2.93;;;2.73;;
9156;SDS011;4613;48.392;9.998;2022-08-19T01:28:58;3.53;;;3.07;;
9156;SDS011;4613;48.392;9.998;2022-08-19T01:31:31;3.27;;;2.97;;
9156;SDS011;4613;48.392;9.998;2022-08-19T01:34:02;3.20;;;2.90;;
9156;SDS011;4613;48.392;9.998;2022-08-19T01:36:35;3.10;;;2.80;;
9156;SDS011;4613;48.392;9.998;2022-08-19T01:39:16;3.43;;;3.13;;
9156;SDS011;4613;48.392;9.998;2022-08-19T01:41:50;3.20;;;2.93;;
9156;SDS011;4613;48.392;9.998;2022-08-19T01:44:24;4.30;;;2.93;;
9156;SDS011;4613;48.392;9.998;2022-08-19T01:46:55;2.77;;;2.57;;
9156;SDS011;4613;48.392;9.998;2022-08-19T01:49:26;3.33;;;3.03;;
9156;SDS011;4613;48.392;9.998;2022-08-19T01:51:58;3.00;;;2.70;;
9156;SDS011;4613;48.392;9.998;2022-08-19T01:54:31;3.23;;;2.93;;
9156;SDS011;4613;48.392;9.998;2022-08-19T01:57:03;3.27;;;2.97;;
9156;SDS011;4613;48.392;9.998;2022-08-19T01:59:38;3.00;;;2.80;;
9156;SDS011;4613;48.392;9.998;2022-08-19T02:02:11;3.53;;;3.00;;
9156;SDS011;4613;48.392;9.998;2022-08-19T02:04:42;3.40;;;3.07;;
9156;SDS011;4613;48.392;9.998;2022-08-19T02:07:13;4.03;;;3.20;;
9156;SDS011;4613;48.392;9.998;2022-08-19T02:09:44;3.20;;;2.70;;
9156;SDS011;4613;48.392;9.998;2022-08-19T02:12:15;3.70;;;2.90;;
9156;SDS011;4613;48.392;9.998;2022-08-19T02:14:46;4.43;;;3.23;;
9156;SDS011;4613;48.392;9.998;2022-08-19T02:17:17;3.50;;;3.20;;
9156;SDS011;4613;48.392;9.998;2022-08-19T02:19:48;3.43;;;3.13;;
9156;SDS011;4613;48.392;9.998;2022-08-19T02:22:19;3.03;;;2.73;;
9156;SDS011;4613;48.392;9.998;2022-08-19T02:24:51;3.77;;;2.87;;
9156;SDS011;4613;48.392;9.998;2022-08-19T02:27:22;3.20;;;2.90;;
9156;SDS011;4613;48.392;9.998;2022-08-19T02:29:53;3.23;;;2.60;;
9156;SDS011;4613;48.392;9.998;2022-08-19T02:32:24;3.23;;;2.90;;
9156;SDS011;4613;48.392;9.998;2022-08-19T02:34:55;4.20;;;3.50;;
9156;SDS011;4613;48.392;9.998;2022-08-19T02:37:26;3.40;;;3.10;;
9156;SDS011;4613;48.392;9.998;2022-08-19T02:40:16;3.23;;;2.87;;
9156;SDS011;4613;48.392;9.998;2022-08-19T02:42:48;3.63;;;3.27;;
9156;SDS011;4613;48.392;9.998;2022-08-19T02:45:19;3.83;;;3.20;;
9156;SDS011;4613;48.392;9.998;2022-08-19T02:47:50;3.43;;;3.10;;
9156;SDS011;4613;48.392;9.998;2022-08-19T02:50:21;3.30;;;3.00;;
9156;SDS011;4613;48.392;9.998;2022-08-19T02:52:52;3.30;;;3.00;;
9156;SDS011;4613;48.392;9.998;2022-08-19T02:55:23;4.00;;;3.30;;
9156;SDS011;4613;48.392;9.998;2022-08-19T02:57:54;3.50;;;3.20;;
9156;SDS011;4613;48.392;9.998;2022-08-19T03:00:25;3.77;;;3.27;;
9156;SDS011;4613;48.392;9.998;2022-08-19T03:02:57;3.50;;;3.20;;
9156;SDS011;4613;48.392;9.998;2022-08-19T03:05:30;3.70;;;3.13;;
9156;SDS011;4613;48.392;9.998;2022-08-19T03:08:01;3.73;;;3.30;;
9156;SDS011;4613;48.392;9.998;2022-08-19T03:10:33;4.43;;;3.50;;
9156;SDS011;4613;48.392;9.998;2022-08-19T03:13:17;3.80;;;3.40;;
9156;SDS011;4613;48.392;9.998;2022-08-19T03:15:48;3.53;;;3.17;;
9156;SDS011;4613;48.392;9.998;2022-08-19T03:18:19;3.43;;;3.00;;
9156;SDS011;4613;48.392;9.998;2022-08-19T03:20:51;3.30;;;2.87;;
9156;SDS011;4613;48.392;9.998;2022-08-19T03:23:26;3.80;;;3.37;;
9156;SDS011;4613;48.392;9.998;2022-08-19T03:25:57;3.73;;;3.07;;
9156;SDS011;4613;48.392;9.998;2022-08-19T03:28:28;3.53;;;3.10;;
9156;SDS011;4613;48.392;9.998;2022-08-19T03:31:00;4.10;;;2.90;;
9156;SDS011;4613;48.392;9.998;2022-08-19T03:33:34;3.53;;;3.13;;
9156;SDS011;4613;48.392;9.998;2022-08-19T03:36:07;3.70;;;3.40;;
9156;SDS011;4613;48.392;9.998;2022-08-19T03:38:47;3.83;;;3.33;;
9156;SDS011;4613;48.392;9.998;2022-08-19T03:41:23;3.67;;;3.37;;
9156;SDS011;4613;48.392;9.998;2022-08-19T03:43:56;4.03;;;3.37;;
9156;SDS011;4613;48.392;9.998;2022-08-19T03:46:28;4.10;;;3.70;;
9156;SDS011;4613;48.392;9.998;2022-08-19T03:49:02;3.97;;;3.50;;
9156;SDS011;4613;48.392;9.998;2022-08-19T03:51:38;3.70;;;3.10;;
9156;SDS011;4613;48.392;9.998;2022-08-19T03:54:11;5.27;;;3.60;;
9156;SDS011;4613;48.392;9.998;2022-08-19T03:56:43;3.90;;;3.60;;
9156;SDS011;4613;48.392;9.998;2022-08-19T03:59:18;3.80;;;3.47;;
9156;SDS011;4613;48.392;9.998;2022-08-19T04:01:52;3.30;;;2.90;;
9156;SDS011;4613;48.392;9.998;2022-08-19T04:04:24;4.03;;;3.23;;
9156;SDS011;4613;48.392;9.998;2022-08-19T04:06:55;3.93;;;3.37;;
9156;SDS011;4613;48.392;9.998;2022-08-19T04:09:27;4.13;;;3.73;;
9156;SDS011;4613;48.392;9.998;2022-08-19T04:11:57;4.23;;;3.40;;
9156;SDS011;4613;48.392;9.998;2022-08-19T04:14:29;3.67;;;3.30;;
9156;SDS011;4613;48.392;9.998;2022-08-19T04:17:01;4.17;;;3.67;;
9156;SDS011;4613;48.392;9.998;2022-08-19T04:19:35;3.93;;;3.47;;
9156;SDS011;4613;48.392;9.998;2022-08-19T04:22:06;3.93;;;3.53;;
9156;SDS011;4613;48.392;9.998;2022-08-19T04:24:37;3.93;;;3.53;;
9156;SDS011;4613;48.392;9.998;2022-08-19T04:27:08;3.60;;;3.30;;
9156;SDS011;4613;48.392;9.998;2022-08-19T04:29:39;4.93;;;4.00;;
9156;SDS011;4613;48.392;9.998;2022-08-19T04:32:10;4.07;;;3.57;;
9156;SDS011;4613;48.392;9.998;2022-08-19T04:34:41;3.43;;;3.13;;
9156;SDS011;4613;48.392;9.998;2022-08-19T04:37:12;3.83;;;3.43;;
9156;SDS011;4613;48.392;9.998;2022-08-19T04:39:45;4.30;;;3.33;;
9156;SDS011;4613;48.392;9.998;2022-08-19T04:42:34;3.47;;;3.10;;
9156;SDS011;4613;48.392;9.998;2022-08-19T04:45:12;4.03;;;3.53;;
9156;SDS011;4613;48.392;9.998;2022-08-19T04:47:44;4.10;;;3.50;;
9156;SDS011;4613;48.392;9.998;2022-08-19T04:50:17;3.70;;;3.40;;
9156;SDS011;4613;48.392;9.998;2022-08-19T04:52:50;4.37;;;3.80;;
9156;SDS011;4613;48.392;9.998;2022-08-19T04:55:21;4.00;;;3.60;;
9156;SDS011;4613;48.392;9.998;2022-08-19T04:57:55;4.20;;;3.43;;
9156;SDS011;4613;48.392;9.998;2022-08-19T05:00:26;4.30;;;3.53;;
9156;SDS011;4613;48.392;9.998;2022-08-19T05:02:57;4.90;;;3.80;;
9156;SDS011;4613;48.392;9.998;2022-08-19T05:05:28;4.73;;;3.30;;
9156;SDS011;4613;48.392;9.998;2022-08-19T05:08:01;5.13;;;3.80;;
9156;SDS011;4613;48.392;9.998;2022-08-19T05:10:35;5.40;;;3.80;;
9156;SDS011;4613;48.392;9.998;2022-08-19T05:13:07;4.70;;;4.00;;
9156;SDS011;4613;48.392;9.998;2022-08-19T05:15:39;4.73;;;3.40;;
9156;SDS011;4613;48.392;9.998;2022-08-19T05:18:10;4.47;;;3.53;;
9156;SDS011;4613;48.392;9.998;2022-08-19T05:21:01;4.40;;;3.47;;
9156;SDS011;4613;48.392;9.998;2022-08-19T05:23:55;3.77;;;3.07;;
9156;SDS011;4613;48.392;9.998;2022-08-19T05:26:27;4.33;;;3.20;;
9156;SDS011;4613;48.392;9.998;2022-08-19T05:28:58;3.63;;;3.10;;
9156;SDS011;4613;48.392;9.998;2022-08-19T05:31:30;3.80;;;3.30;;
9156;SDS011;4613;48.392;9.998;2022-08-19T05:34:01;4.40;;;3.37;;
9156;SDS011;4613;48.392;9.998;2022-08-19T05:36:36;2.80;;;2.60;;
9156;SDS011;4613;48.392;9.998;2022-08-19T05:39:13;3.33;;;2.80;;
9156;SDS011;4613;48.392;9.998;2022-08-19T05:41:47;3.77;;;3.17;;
9156;SDS011;4613;48.392;9.998;2022-08-19T05:44:20;4.37;;;3.37;;
9156;SDS011;4613;48.392;9.998;2022-08-19T05:46:52;3.57;;;3.00;;
9156;SDS011;4613;48.392;9.998;2022-08-19T05:49:24;3.00;;;2.80;;
9156;SDS011;4613;48.392;9.998;2022-08-19T05:51:56;3.60;;;3.23;;
9156;SDS011;4613;48.392;9.998;2022-08-19T05:54:27;3.43;;;3.13;;
9156;SDS011;4613;48.392;9.998;2022-08-19T05:56:58;4.00;;;3.20;;
9156;SDS011;4613;48.392;9.998;2022-08-19T05:59:30;4.43;;;3.53;;
9156;SDS011;4613;48.392;9.998;2022-08-19T06:02:01;4.87;;;3.43;;
9156;SDS011;4613;48.392;9.998;2022-08-19T06:04:33;5.53;;;3.77;;
9156;SDS011;4613;48.392;9.998;2022-08-19T06:07:05;3.10;;;2.90;;
9156;SDS011;4613;48.392;9.998;2022-08-19T06:09:37;5.33;;;3.60;;
9156;SDS011;4613;48.392;9.998;2022-08-19T06:12:08;4.00;;;3.60;;
9156;SDS011;4613;48.392;9.998;2022-08-19T06:14:40;3.80;;;3.40;;
9156;SDS011;4613;48.392;9.998;2022-08-19T06:17:12;3.97;;;3.33;;
9156;SDS011;4613;48.392;9.998;2022-08-19T06:19:43;4.17;;;3.40;;
9156;SDS011;4613;48.392;9.998;2022-08-19T06:22:14;3.93;;;3.20;;
9156;SDS011;4613;48.392;9.998;2022-08-19T06:24:45;4.67;;;3.13;;
9156;SDS011;4613;48.392;9.998;2022-08-19T06:27:16;3.77;;;3.23;;
9156;SDS011;4613;48.392;9.998;2022-08-19T06:29:47;3.40;;;3.10;;
9156;SDS011;4613;48.392;9.998;2022-08-19T06:32:18;3.73;;;3.40;;
9156;SDS011;4613;48.392;9.998;2022-08-19T06:34:49;4.97;;;3.30;;
9156;SDS011;4613;48.392;9.998;2022-08-19T06:37:20;3.70;;;3.30;;
9156;SDS011;4613;48.392;9.998;2022-08-19T06:39:51;3.53;;;2.90;;
9156;SDS011;4613;48.392;9.998;2022-08-19T06:42:22;4.37;;;3.77;;
9156;SDS011;4613;48.392;9.998;2022-08-19T06:44:54;4.30;;;3.50;;
9156;SDS011;4613;48.392;9.998;2022-08-19T06:47:25;3.67;;;3.37;;
9156;SDS011;4613;48.392;9.998;2022-08-19T06:49:56;3.40;;;3.10;;
9156;SDS011;4613;48.392;9.998;2022-08-19T06:52:34;4.70;;;3.07;;
9156;SDS011;4613;48.392;9.998;2022-08-19T06:55:05;4.17;;;3.20;;
9156;SDS011;4613;48.392;9.998;2022-08-19T06:57:37;4.13;;;2.90;;
9156;SDS011;4613;48.392;9.998;2022-08-19T07:00:08;4.50;;;3.63;;
9156;SDS011;4613;48.392;9.998;2022-08-19T07:02:47;4.60;;;3.13;;
9156;SDS011;4613;48.392;9.998;2022-08-19T07:05:19;3.53;;;2.97;;
9156;SDS011;4613;48.392;9.998;2022-08-19T07:07:50;4.20;;;3.40;;
9156;SDS011;4613;48.392;9.998;2022-08-19T07:10:21;3.53;;;3.23;;
9156;SDS011;4613;48.392;9.998;2022-08-19T07:12:52;4.40;;;3.20;;
9156;SDS011;4613;48.392;9.998;2022-08-19T07:15:24;3.03;;;2.80;;
9156;SDS011;4613;48.392;9.998;2022-08-19T07:17:55;2.80;;;2.60;;
9156;SDS011;4613;48.392;9.998;2022-08-19T07:20:26;5.07;;;2.90;;
9156;SDS011;4613;48.392;9.998;2022-08-19T07:22:57;3.40;;;2.93;;
9156;SDS011;4613;48.392;9.998;2022-08-19T07:25:28;3.20;;;2.90;;
9156;SDS011;4613;48.392;9.998;2022-08-19T07:27:59;3.93;;;3.37;;
9156;SDS011;4613;48.392;9.998;2022-08-19T07:30:30;3.67;;;3.10;;
9156;SDS011;4613;48.392;9.998;2022-08-19T07:33:01;3.57;;;3.03;;
9156;SDS011;4613;48.392;9.998;2022-08-19T07:35:31;3.00;;;2.70;;
9156;SDS011;4613;48.392;9.998;2022-08-19T07:38:02;3.40;;;3.10;;
9156;SDS011;4613;48.392;9.998;2022-08-19T07:40:34;4.20;;;2.93;;
9156;SDS011;4613;48.392;9.998;2022-08-19T07:43:05;3.30;;;3.00;;
9156;SDS011;4613;48.392;9.998;2022-08-19T07:45:36;3.27;;;2.97;;
9156;SDS011;4613;48.392;9.998;2022-08-19T07:48:07;3.90;;;3.30;;
9156;SDS011;4613;48.392;9.998;2022-08-19T07:50:38;3.13;;;2.83;;
9156;SDS011;4613;48.392;9.998;2022-08-19T07:53:09;2.97;;;2.77;;
9156;SDS011;4613;48.392;9.998;2022-08-19T07:55:40;3.13;;;2.80;;
9156;SDS011;4613;48.392;9.998;2022-08-19T07:58:12;3.50;;;3.20;;
9156;SDS011;4613;48.392;9.998;2022-08-19T08:00:46;2.90;;;2.63;;
9156;SDS011;4613;48.392;9.998;2022-08-19T08:03:19;3.03;;;2.73;;
9156;SDS011;4613;48.392;9.998;2022-08-19T08:06:13;3.07;;;2.80;;
9156;SDS011;4613;48.392;9.998;2022-08-19T08:09:03;2.57;;;2.37;;
9156;SDS011;4613;48.392;9.998;2022-08-19T08:11:42;3.50;;;3.20;;
9156;SDS011;4613;48.392;9.998;2022-08-19T08:14:27;3.17;;;2.87;;
9156;SDS011;4613;48.392;9.998;2022-08-19T08:17:04;2.80;;;2.60;;
9156;SDS011;4613;48.392;9.998;2022-08-19T08:19:36;2.80;;;2.60;;
9156;SDS011;4613;48.392;9.998;2022-08-19T08:22:08;3.37;;;3.07;;
9156;SDS011;4613;48.392;9.998;2022-08-19T08:25:06;3.40;;;2.97;;
9156;SDS011;4613;48.392;9.998;2022-08-19T08:27:40;3.20;;;2.90;;
9156;SDS011;4613;48.392;9.998;2022-08-19T08:30:16;2.90;;;2.60;;
9156;SDS011;4613;48.392;9.998;2022-08-19T08:32:53;3.33;;;3.00;;
9156;SDS011;4613;48.392;9.998;2022-08-19T08:35:24;3.30;;;3.00;;
9156;SDS011;4613;48.392;9.998;2022-08-19T08:37:55;2.97;;;2.77;;
9156;SDS011;4613;48.392;9.998;2022-08-19T08:41:01;4.97;;;3.07;;
9156;SDS011;4613;48.392;9.998;2022-08-19T08:43:27;3.60;;;2.93;;
9156;SDS011;4613;48.392;9.998;2022-08-19T08:46:16;4.10;;;3.10;;
9156;SDS011;4613;48.392;9.998;2022-08-19T08:48:54;5.67;;;3.57;;
9156;SDS011;4613;48.392;9.998;2022-08-19T08:52:04;4.43;;;2.70;;
9156;SDS011;4613;48.392;9.998;2022-08-19T08:54:39;4.03;;;3.20;;
9156;SDS011;4613;48.392;9.998;2022-08-19T08:57:14;4.30;;;3.10;;
9156;SDS011;4613;48.392;9.998;2022-08-19T09:00:08;3.27;;;2.93;;
9156;SDS011;4613;48.392;9.998;2022-08-19T09:02:45;3.23;;;2.93;;
9156;SDS011;4613;48.392;9.998;2022-08-19T09:05:16;4.00;;;3.10;;
9156;SDS011;4613;48.392;9.998;2022-08-19T09:10:46;4.47;;;3.30;;
9156;SDS011;4613;48.392;9.998;2022-08-19T09:16:13;4.37;;;3.10;;
9156;SDS011;4613;48.392;9.998;2022-08-19T09:18:48;3.87;;;3.27;;
9156;SDS011;4613;48.392;9.998;2022-08-19T09:21:24;3.13;;;2.83;;
9156;SDS011;4613;48.392;9.998;2022-08-19T09:23:57;3.63;;;3.03;;
9156;SDS011;4613;48.392;9.998;2022-08-19T09:26:29;4.47;;;3.73;;
9156;SDS011;4613;48.392;9.998;2022-08-19T09:29:02;3.90;;;3.37;;
9156;SDS011;4613;48.392;9.998;2022-08-19T09:31:35;4.30;;;3.33;;
9156;SDS011;4613;48.392;9.998;2022-08-19T09:34:07;3.77;;;2.90;;
9156;SDS011;4613;48.392;9.998;2022-08-19T09:36:38;5.13;;;3.07;;
9156;SDS011;4613;48.392;9.998;2022-08-19T09:39:10;3.77;;;2.70;;
9156;SDS011;4613;48.392;9.998;2022-08-19T09:41:41;3.90;;;2.90;;
9156;SDS011;4613;48.392;9.998;2022-08-19T09:44:12;4.47;;;3.00;;
9156;SDS011;4613;48.392;9.998;2022-08-19T09:46:43;3.70;;;2.90;;
9156;SDS011;4613;48.392;9.998;2022-08-19T09:49:20;3.13;;;2.90;;
9156;SDS011;4613;48.392;9.998;2022-08-19T09:51:53;3.27;;;2.87;;
9156;SDS011;4613;48.392;9.998;2022-08-19T09:54:26;3.83;;;3.00;;
9156;SDS011;4613;48.392;9.998;2022-08-19T09:56:58;3.37;;;3.07;;
9156;SDS011;4613;48.392;9.998;2022-08-19T09:59:32;4.87;;;3.17;;
9156;SDS011;4613;48.392;9.998;2022-08-19T10:02:03;4.90;;;3.23;;
9156;SDS011;4613;48.392;9.998;2022-08-19T10:04:35;4.93;;;3.17;;
9156;SDS011;4613;48.392;9.998;2022-08-19T10:07:24;3.63;;;3.13;;
9156;SDS011;4613;48.392;9.998;2022-08-19T10:09:55;3.63;;;2.90;;
9156;SDS011;4613;48.392;9.998;2022-08-19T10:12:26;4.27;;;3.40;;
9156;SDS011;4613;48.392;9.998;2022-08-19T10:14:58;3.47;;;3.10;;
9156;SDS011;4613;48.392;9.998;2022-08-19T10:17:30;4.07;;;3.17;;
9156;SDS011;4613;48.392;9.998;2022-08-19T10:20:03;4.07;;;3.03;;
9156;SDS011;4613;48.392;9.998;2022-08-19T10:22:35;4.50;;;3.30;;
9156;SDS011;4613;48.392;9.998;2022-08-19T10:25:07;4.97;;;3.00;;
9156;SDS011;4613;48.392;9.998;2022-08-19T10:27:38;4.60;;;3.27;;
9156;SDS011;4613;48.392;9.998;2022-08-19T10:30:09;4.13;;;3.47;;
9156;SDS011;4613;48.392;9.998;2022-08-19T10:32:41;3.57;;;3.27;;
9156;SDS011;4613;48.392;9.998;2022-08-19T10:35:12;3.60;;;3.07;;
9156;SDS011;4613;48.392;9.998;2022-08-19T10:37:44;5.37;;;3.13;;
9156;SDS011;4613;48.392;9.998;2022-08-19T10:40:15;3.60;;;2.83;;
9156;SDS011;4613;48.392;9.998;2022-08-19T10:42:46;4.37;;;3.50;;
9156;SDS011;4613;48.392;9.998;2022-08-19T10:45:17;3.33;;;3.03;;
9156;SDS011;4613;48.392;9.998;2022-08-19T10:47:48;3.30;;;3.00;;
9156;SDS011;4613;48.392;9.998;2022-08-19T10:50:19;3.63;;;3.17;;
9156;SDS011;4613;48.392;9.998;2022-08-19T10:53:09;3.47;;;2.67;;
9156;SDS011;4613;48.392;9.998;2022-08-19T10:55:40;5.70;;;3.40;;
9156;SDS011;4613;48.392;9.998;2022-08-19T10:58:29;3.53;;;3.13;;
9156;SDS011;4613;48.392;9.998;2022-08-19T11:01:00;3.23;;;2.93;;
9156;SDS011;4613;48.392;9.998;2022-08-19T11:03:31;4.57;;;3.33;;
9156;SDS011;4613;48.392;9.998;2022-08-19T11:06:03;3.60;;;3.10;;
9156;SDS011;4613;48.392;9.998;2022-08-19T11:08:36;3.70;;;3.40;;
9156;SDS011;4613;48.392;9.998;2022-08-19T11:11:07;3.53;;;3.20;;
9156;SDS011;4613;48.392;9.998;2022-08-19T11:13:39;3.33;;;3.00;;
9156;SDS011;4613;48.392;9.998;2022-08-19T11:16:12;3.43;;;3.13;;
9156;SDS011;4613;48.392;9.998;2022-08-19T11:18:48;4.23;;;3.50;;
9156;SDS011;4613;48.392;9.998;2022-08-19T11:21:24;4.07;;;3.70;;
9156;SDS011;4613;48.392;9.998;2022-08-19T11:23:58;4.47;;;3.57;;
9156;SDS011;4613;48.392;9.998;2022-08-19T11:26:31;4.37;;;3.40;;
9156;SDS011;4613;48.392;9.998;2022-08-19T11:29:03;3.67;;;3.37;;
9156;SDS011;4613;48.392;9.998;2022-08-19T11:31:36;4.43;;;3.33;;
9156;SDS011;4613;48.392;9.998;2022-08-19T11:34:11;3.70;;;3.30;;
9156;SDS011;4613;48.392;9.998;2022-08-19T11:36:47;3.37;;;3.07;;
9156;SDS011;4613;48.392;9.998;2022-08-19T11:39:20;4.47;;;3.67;;
9156;SDS011;4613;48.392;9.998;2022-08-19T11:41:51;3.63;;;3.17;;
9156;SDS011;4613;48.392;9.998;2022-08-19T11:44:23;3.60;;;3.30;;
9156;SDS011;4613;48.392;9.998;2022-08-19T11:46:54;4.93;;;3.17;;
9156;SDS011;4613;48.392;9.998;2022-08-19T11:49:25;4.00;;;3.20;;
9156;SDS011;4613;48.392;9.998;2022-08-19T11:51:56;4.10;;;3.70;;
9156;SDS011;4613;48.392;9.998;2022-08-19T11:54:28;3.60;;;3.30;;
9156;SDS011;4613;48.392;9.998;2022-08-19T11:56:59;3.83;;;3.40;;
9156;SDS011;4613;48.392;9.998;2022-08-19T11:59:32;3.73;;;3.33;;
9156;SDS011;4613;48.392;9.998;2022-08-19T12:02:03;5.03;;;3.37;;
9156;SDS011;4613;48.392;9.998;2022-08-19T12:04:34;3.03;;;2.73;;
9156;SDS011;4613;48.392;9.998;2022-08-19T12:07:05;4.50;;;3.00;;
9156;SDS011;4613;48.392;9.998;2022-08-19T12:09:37;3.47;;;3.17;;
9156;SDS011;4613;48.392;9.998;2022-08-19T12:12:09;4.10;;;3.57;;
9156;SDS011;4613;48.392;9.998;2022-08-19T12:14:40;3.73;;;3.33;;
9156;SDS011;4613;48.392;9.998;2022-08-19T12:17:11;3.60;;;3.30;;
9156;SDS011;4613;48.392;9.998;2022-08-19T12:19:43;3.43;;;3.13;;
9156;SDS011;4613;48.392;9.998;2022-08-19T12:22:14;4.03;;;3.60;;
9156;SDS011;4613;48.392;9.998;2022-08-19T12:24:45;4.13;;;3.37;;
9156;SDS011;4613;48.392;9.998;2022-08-19T12:27:18;3.33;;;3.00;;
9156;SDS011;4613;48.392;9.998;2022-08-19T12:29:49;3.97;;;3.37;;
9156;SDS011;4613;48.392;9.998;2022-08-19T12:32:22;4.03;;;3.10;;
9156;SDS011;4613;48.392;9.998;2022-08-19T12:34:54;3.73;;;3.00;;
9156;SDS011;4613;48.392;9.998;2022-08-19T12:37:27;3.37;;;3.07;;
9156;SDS011;4613;48.392;9.998;2022-08-19T12:39:58;3.87;;;3.20;;
9156;SDS011;4613;48.392;9.998;2022-08-19T12:42:29;3.10;;;2.77;;
9156;SDS011;4613;48.392;9.998;2022-08-19T12:45:01;4.37;;;2.83;;
9156;SDS011;4613;48.392;9.998;2022-08-19T12:47:32;3.20;;;2.77;;
9156;SDS011;4613;48.392;9.998;2022-08-19T12:50:03;3.20;;;2.90;;
9156;SDS011;4613;48.392;9.998;2022-08-19T12:52:37;3.50;;;2.90;;
9156;SDS011;4613;48.392;9.998;2022-08-19T12:55:08;2.90;;;2.60;;
9156;SDS011;4613;48.392;9.998;2022-08-19T12:57:40;3.07;;;2.77;;
9156;SDS011;4613;48.392;9.998;2022-08-19T13:00:13;3.03;;;2.73;;
9156;SDS011;4613;48.392;9.998;2022-08-19T13:02:47;2.57;;;2.37;;
9156;SDS011;4613;48.392;9.998;2022-08-19T13:05:23;3.00;;;2.20;;
9156;SDS011;4613;48.392;9.998;2022-08-19T13:07:56;2.53;;;2.33;;
9156;SDS011;4613;48.392;9.998;2022-08-19T13:10:31;2.73;;;2.20;;
9156;SDS011;4613;48.392;9.998;2022-08-19T13:13:07;1.80;;;1.70;;
9156;SDS011;4613;48.392;9.998;2022-08-19T13:15:40;2.40;;;2.00;;
9156;SDS011;4613;48.392;9.998;2022-08-19T13:18:12;2.23;;;2.03;;
9156;SDS011;4613;48.392;9.998;2022-08-19T13:20:44;2.23;;;2.03;;
9156;SDS011;4613;48.392;9.998;2022-08-19T13:23:16;2.33;;;2.13;;
9156;SDS011;4613;48.392;9.998;2022-08-19T13:25:55;2.07;;;1.87;;
9156;SDS011;4613;48.392;9.998;2022-08-19T13:28:27;2.60;;;2.40;;
9156;SDS011;4613;48.392;9.998;2022-08-19T13:31:19;2.67;;;1.80;;
9156;SDS011;4613;48.392;9.998;2022-08-19T13:34:10;1.40;;;1.30;;
9156;SDS011;4613;48.392;9.998;2022-08-19T13:36:41;2.27;;;2.07;;
9156;SDS011;4613;48.392;9.998;2022-08-19T13:39:13;1.63;;;1.53;;
9156;SDS011;4613;48.392;9.998;2022-08-19T13:41:44;2.17;;;1.70;;
9156;SDS011;4613;48.392;9.998;2022-08-19T13:44:20;1.80;;;1.70;;
9156;SDS011;4613;48.392;9.998;2022-08-19T13:46:51;1.13;;;1.13;;
9156;SDS011;4613;48.392;9.998;2022-08-19T13:49:23;1.37;;;1.27;;
9156;SDS011;4613;48.392;9.998;2022-08-19T13:51:54;1.60;;;1.50;;
9156;SDS011;4613;48.392;9.998;2022-08-19T13:54:25;1.17;;;1.17;;
9156;SDS011;4613;48.392;9.998;2022-08-19T13:56:57;1.30;;;1.30;;
9156;SDS011;4613;48.392;9.998;2022-08-19T13:59:28;1.83;;;1.73;;
9156;SDS011;4613;48.392;9.998;2022-08-19T14:01:59;1.40;;;1.30;;
9156;SDS011;4613;48.392;9.998;2022-08-19T14:04:30;1.67;;;1.57;;
9156;SDS011;4613;48.392;9.998;2022-08-19T14:07:03;1.67;;;1.57;;
9156;SDS011;4613;48.392;9.998;2022-08-19T14:09:34;1.90;;;1.80;;
9156;SDS011;4613;48.392;9.998;2022-08-19T14:12:05;1.80;;;1.70;;
9156;SDS011;4613;48.392;9.998;2022-08-19T14:14:37;1.80;;;1.70;;
9156;SDS011;4613;48.392;9.998;2022-08-19T14:17:08;2.30;;;2.10;;
9156;SDS011;4613;48.392;9.998;2022-08-19T14:19:40;1.77;;;1.67;;
9156;SDS011;4613;48.392;9.998;2022-08-19T14:22:11;1.90;;;1.80;;
9156;SDS011;4613;48.392;9.998;2022-08-19T14:24:43;2.17;;;1.97;;
9156;SDS011;4613;48.392;9.998;2022-08-19T14:27:14;2.27;;;2.07;;
9156;SDS011;4613;48.392;9.998;2022-08-19T14:29:45;1.87;;;1.77;;
9156;SDS011;4613;48.392;9.998;2022-08-19T14:32:16;2.00;;;1.90;;
9156;SDS011;4613;48.392;9.998;2022-08-19T14:34:47;2.00;;;1.90;;
9156;SDS011;4613;48.392;9.998;2022-08-19T14:37:18;2.40;;;2.20;;
9156;SDS011;4613;48.392;9.998;2022-08-19T14:39:49;1.80;;;1.70;;
9156;SDS011;4613;48.392;9.998;2022-08-19T14:42:20;2.23;;;2.03;;
9156;SDS011;4613;48.392;9.998;2022-08-19T14:44:51;1.80;;;1.70;;
9156;SDS011;4613;48.392;9.998;2022-08-19T14:47:22;1.97;;;1.87;;
9156;SDS011;4613;48.392;9.998;2022-08-19T14:49:53;1.90;;;1.80;;
9156;SDS011;4613;48.392;9.998;2022-08-19T14:52:24;2.20;;;2.10;;
9156;SDS011;4613;48.392;9.998;2022-08-19T14:54:56;1.90;;;1.80;;
9156;SDS011;4613;48.392;9.998;2022-08-19T14:57:27;1.80;;;1.70;;
9156;SDS011;4613;48.392;9.998;2022-08-19T14:59:58;2.00;;;1.90;;
9156;SDS011;4613;48.392;9.998;2022-08-19T15:02:31;2.13;;;1.93;;
9156;SDS011;4613;48.392;9.998;2022-08-19T15:05:01;2.40;;;2.20;;
9156;SDS011;4613;48.392;9.998;2022-08-19T15:07:33;1.83;;;1.70;;
9156;SDS011;4613;48.392;9.998;2022-08-19T15:10:04;1.93;;;1.73;;
9156;SDS011;4613;48.392;9.998;2022-08-19T15:12:37;1.67;;;1.57;;
9156;SDS011;4613;48.392;9.998;2022-08-19T15:15:12;2.00;;;1.90;;
9156;SDS011;4613;48.392;9.998;2022-08-19T15:17:44;2.63;;;1.97;;
9156;SDS011;4613;48.392;9.998;2022-08-19T15:20:18;2.27;;;1.90;;
9156;SDS011;4613;48.392;9.998;2022-08-19T15:22:51;2.70;;;2.50;;
9156;SDS011;4613;48.392;9.998;2022-08-19T15:25:22;2.20;;;2.00;;
9156;SDS011;4613;48.392;9.998;2022-08-19T15:27:53;1.80;;;1.70;;
9156;SDS011;4613;48.392;9.998;2022-08-19T15:30:25;2.27;;;1.97;;
9156;SDS011;4613;48.392;9.998;2022-08-19T15:32:58;1.87;;;1.77;;
9156;SDS011;4613;48.392;9.998;2022-08-19T15:35:29;2.30;;;2.00;;
9156;SDS011;4613;48.392;9.998;2022-08-19T15:38:00;2.20;;;1.97;;
9156;SDS011;4613;48.392;9.998;2022-08-19T15:40:32;1.90;;;1.80;;
9156;SDS011;4613;48.392;9.998;2022-08-19T15:43:03;1.77;;;1.67;;
9156;SDS011;4613;48.392;9.998;2022-08-19T15:45:34;2.17;;;2.07;;
9156;SDS011;4613;48.392;9.998;2022-08-19T15:48:04;2.10;;;1.90;;
9156;SDS011;4613;48.392;9.998;2022-08-19T15:50:35;2.33;;;2.13;;
9156;SDS011;4613;48.392;9.998;2022-08-19T15:53:09;2.03;;;1.93;;
9156;SDS011;4613;48.392;9.998;2022-08-19T15:55:42;2.40;;;2.20;;
9156;SDS011;4613;48.392;9.998;2022-08-19T15:58:14;2.17;;;1.97;;